createdAt,value
2018-08-13T00:01:54.222Z,18.20
2018-08-13T00:04:24.041Z,18.30
2018-08-13T00:06:53.741Z,18.30
2018-08-13T00:09:28.689Z,18.20
2018-08-13T00:11:58.441Z,18.10
2018-08-13T00:14:28.121Z,18.10
2018-08-13T00:16:57.968Z,18.10
2018-08-13T00:19:27.642Z,18.00
2018-08-13T00:21:57.467Z,18.00
2018-08-13T00:24:27.222Z,18.00
2018-08-13T00:26:56.961Z,18.00
2018-08-13T00:29:26.742Z,18.10
2018-08-13T00:31:56.422Z,18.10
2018-08-13T00:34:26.545Z,18.00
2018-08-13T00:36:56.241Z,18.00
2018-08-13T00:39:25.941Z,18.00
2018-08-13T00:41:55.621Z,18.00
2018-08-13T00:44:25.315Z,18.10
2018-08-13T00:46:55.380Z,18.10
2018-08-13T00:49:25.121Z,18.00
2018-08-13T00:51:54.882Z,18.00
2018-08-13T00:54:24.541Z,17.90
2018-08-13T00:56:54.491Z,17.90
2018-08-13T00:59:24.200Z,17.80
2018-08-13T01:01:54.280Z,17.70
2018-08-13T01:04:24.041Z,17.60
2018-08-13T01:06:53.780Z,17.60
2018-08-13T01:09:23.460Z,17.60
2018-08-13T01:11:53.280Z,17.50
2018-08-13T01:14:22.890Z,17.40
2018-08-13T01:16:52.881Z,17.40
2018-08-13T01:19:22.762Z,17.50
2018-08-13T01:21:52.681Z,17.50
2018-08-13T01:24:22.684Z,17.40
2018-08-13T01:26:52.620Z,17.40
2018-08-13T01:29:22.540Z,17.30
2018-08-13T01:31:52.360Z,17.30
2018-08-13T01:34:22.000Z,17.20
2018-08-13T01:36:51.880Z,17.20
2018-08-13T01:39:21.580Z,17.20
2018-08-13T01:41:51.400Z,17.20
2018-08-13T01:44:21.160Z,17.20
2018-08-13T01:46:50.920Z,17.10
2018-08-13T01:49:20.679Z,17.10
2018-08-13T01:51:50.620Z,17.00
2018-08-13T01:54:20.839Z,17.00
2018-08-13T01:56:50.560Z,17.00
2018-08-13T01:59:20.340Z,17.00
2018-08-13T02:01:50.128Z,17.00
2018-08-13T02:04:19.881Z,17.10
2018-08-13T02:06:49.880Z,17.00
2018-08-13T02:09:19.680Z,17.00
2018-08-13T02:11:49.442Z,17.00
2018-08-13T02:14:19.261Z,17.00
2018-08-13T02:16:49.001Z,17.00
2018-08-13T02:19:18.781Z,16.90
2018-08-13T02:21:48.862Z,16.90
2018-08-13T02:24:18.961Z,16.90
2018-08-13T02:26:48.700Z,16.90
2018-08-13T02:29:18.661Z,16.90
2018-08-13T02:31:49.161Z,16.90
2018-08-13T02:34:19.244Z,16.90
2018-08-13T02:36:49.643Z,16.90
2018-08-13T02:39:19.858Z,16.90
2018-08-13T02:41:49.483Z,17.00
2018-08-13T02:44:19.203Z,16.90
2018-08-13T02:46:48.921Z,16.90
2018-08-13T02:49:18.726Z,16.90
2018-08-13T02:51:48.480Z,16.90
2018-08-13T02:54:18.181Z,16.80
2018-08-13T02:59:21.963Z,16.70
2018-08-13T03:01:52.044Z,16.60
2018-08-13T03:04:21.825Z,16.60
2018-08-13T03:06:51.888Z,16.60
2018-08-13T03:09:22.064Z,16.50
2018-08-13T03:11:51.985Z,16.50
2018-08-13T03:14:21.825Z,16.50
2018-08-13T03:16:51.586Z,16.50
2018-08-13T03:19:21.367Z,16.50
2018-08-13T03:21:51.107Z,16.50
2018-08-13T03:24:20.806Z,16.50
2018-08-13T03:26:50.966Z,16.40
2018-08-13T03:29:20.645Z,16.40
2018-08-13T03:31:50.444Z,16.40
2018-08-13T03:34:20.144Z,16.40
2018-08-13T03:36:49.924Z,16.40
2018-08-13T03:39:19.724Z,16.40
2018-08-13T03:41:49.484Z,16.40
2018-08-13T03:44:19.144Z,16.40
2018-08-13T03:46:48.944Z,16.40
2018-08-13T03:49:18.564Z,16.40
2018-08-13T03:51:49.105Z,16.40
2018-08-13T03:54:18.926Z,16.40
2018-08-13T03:56:48.704Z,16.30
2018-08-13T04:01:51.340Z,16.40
2018-08-13T04:04:21.140Z,16.40
2018-08-13T04:06:51.244Z,16.40
2018-08-13T04:09:20.980Z,16.50
2018-08-13T04:11:51.082Z,16.50
2018-08-13T04:14:20.741Z,16.50
2018-08-13T04:17:04.800Z,16.50
2018-08-13T04:19:35.040Z,16.60
2018-08-13T04:22:04.801Z,16.60
2018-08-13T04:24:34.620Z,16.60
2018-08-13T04:27:04.681Z,16.80
2018-08-13T04:29:34.400Z,17.90
2018-08-13T04:32:04.200Z,19.20
2018-08-13T04:34:33.920Z,20.30
2018-08-13T04:37:03.662Z,21.40
2018-08-13T04:39:33.500Z,22.30
2018-08-13T04:42:07.560Z,22.80
2018-08-13T04:44:37.480Z,22.50
2018-08-13T04:47:10.960Z,22.00
2018-08-13T04:49:40.460Z,21.90
2018-08-13T04:52:10.239Z,22.30
2018-08-13T04:54:44.121Z,23.20
2018-08-13T04:57:13.761Z,24.20
2018-08-13T04:59:43.401Z,25.20
2018-08-13T05:02:13.505Z,25.80
2018-08-13T05:04:42.646Z,26.60
2018-08-13T05:07:12.715Z,27.20
2018-08-13T05:09:41.485Z,27.70
2018-08-13T05:12:11.231Z,28.00
2018-08-13T05:14:40.905Z,28.20
2018-08-13T05:17:10.704Z,27.70
2018-08-13T05:19:39.364Z,26.90
2018-08-13T05:22:09.325Z,26.40
2018-08-13T05:24:39.205Z,25.80
2018-08-13T05:27:09.248Z,25.80
2018-08-13T05:29:38.945Z,26.00
2018-08-13T05:32:08.925Z,26.30
2018-08-13T05:34:38.684Z,26.80
2018-08-13T05:37:08.841Z,27.00
2018-08-13T05:39:38.583Z,27.50
2018-08-13T05:42:08.361Z,28.80
2018-08-13T05:44:38.143Z,30.00
2018-08-13T05:47:07.881Z,31.00
2018-08-13T05:49:37.763Z,31.80
2018-08-13T05:52:11.801Z,32.10
2018-08-13T05:54:41.950Z,31.90
2018-08-13T05:57:12.162Z,32.10
2018-08-13T05:59:41.781Z,32.30
2018-08-13T06:02:11.563Z,32.20
2018-08-13T06:04:41.283Z,32.20
2018-08-13T06:07:11.001Z,32.60
2018-08-13T06:09:45.383Z,32.30
2018-08-13T06:12:15.023Z,32.10
2018-08-13T06:14:44.821Z,32.00
2018-08-13T06:17:14.314Z,31.80
2018-08-13T06:19:43.616Z,31.50
2018-08-13T06:22:12.825Z,31.20
2018-08-13T06:24:42.134Z,30.90
2018-08-13T06:27:11.491Z,30.50
2018-08-13T06:29:40.987Z,30.50
2018-08-13T06:32:10.414Z,30.40
2018-08-13T06:34:44.206Z,30.40
2018-08-13T06:37:13.551Z,30.70
2018-08-13T06:39:42.720Z,31.00
2018-08-13T06:42:12.442Z,31.40
2018-08-13T06:44:42.266Z,31.90
2018-08-13T06:47:11.933Z,32.20
2018-08-13T06:49:41.582Z,32.30
2018-08-13T06:52:11.262Z,32.40
2018-08-13T06:54:43.623Z,32.10
2018-08-13T06:57:13.405Z,31.90
2018-08-13T06:59:43.104Z,31.50
2018-08-13T07:02:18.041Z,30.80
2018-08-13T07:04:47.841Z,30.10
2018-08-13T07:07:17.781Z,29.40
2018-08-13T07:09:47.581Z,28.80
2018-08-13T07:12:18.601Z,28.30
2018-08-13T07:14:48.421Z,27.90
2018-08-13T07:17:18.122Z,27.70
2018-08-13T07:19:48.322Z,27.60
2018-08-13T07:22:19.012Z,27.60
2018-08-13T07:24:49.368Z,27.60
2018-08-13T07:27:18.921Z,27.20
2018-08-13T07:29:53.921Z,26.90
2018-08-13T07:32:23.700Z,26.90
2018-08-13T07:34:54.681Z,27.00
2018-08-13T07:37:24.281Z,27.10
2018-08-13T07:39:53.960Z,27.20
2018-08-13T07:42:24.001Z,27.50
2018-08-13T07:44:53.680Z,27.90
2018-08-13T07:47:24.622Z,28.20
2018-08-13T07:49:58.721Z,28.00
2018-08-13T07:52:29.580Z,28.20
2018-08-13T07:55:00.180Z,28.60
2018-08-13T07:57:30.880Z,29.00
2018-08-13T08:00:01.028Z,28.90
2018-08-13T08:02:31.747Z,28.90
2018-08-13T08:05:01.906Z,29.10
2018-08-13T08:07:32.526Z,29.20
2018-08-13T08:10:03.167Z,29.40
2018-08-13T08:12:34.682Z,29.60
2018-08-13T08:15:05.662Z,29.60
2018-08-13T08:17:35.482Z,29.40
2018-08-13T08:22:40.682Z,29.50
2018-08-13T08:25:14.301Z,29.40
2018-08-13T08:27:46.529Z,29.30
2018-08-13T08:30:16.343Z,28.80
2018-08-13T08:32:46.162Z,28.90
2018-08-13T08:35:18.723Z,28.90
2018-08-13T08:37:49.182Z,28.90
2018-08-13T08:40:20.869Z,29.10
2018-08-13T08:42:51.469Z,29.10
2018-08-13T08:45:27.401Z,28.90
2018-08-13T08:47:58.349Z,28.90
2018-08-13T08:50:28.400Z,28.80
2018-08-13T08:52:58.227Z,28.80
2018-08-13T08:55:28.061Z,29.00
2018-08-13T08:58:00.083Z,28.90
2018-08-13T09:00:32.832Z,29.30
2018-08-13T09:03:07.248Z,29.60
2018-08-13T09:05:37.787Z,29.60
2018-08-13T09:08:08.297Z,29.50
2018-08-13T09:10:39.312Z,29.60
2018-08-13T09:13:09.168Z,29.60
2018-08-13T09:15:43.305Z,29.70
2018-08-13T09:18:23.725Z,30.10
2018-08-13T09:21:04.245Z,30.40
2018-08-13T09:23:45.027Z,30.40
2018-08-13T09:26:25.646Z,30.50
2018-08-13T09:29:10.151Z,30.80
2018-08-13T09:32:16.285Z,31.00
2018-08-13T09:34:55.087Z,31.10
2018-08-13T09:37:29.304Z,31.10
2018-08-13T09:39:59.725Z,31.00
2018-08-13T09:42:30.407Z,31.10
2018-08-13T09:45:01.685Z,30.90
2018-08-13T09:47:31.601Z,30.80
2018-08-13T09:50:01.947Z,30.90
2018-08-13T09:52:32.221Z,30.90
2018-08-13T09:55:02.026Z,31.00
2018-08-13T09:57:32.020Z,30.90
2018-08-13T10:00:02.220Z,30.80
2018-08-13T10:02:32.752Z,30.70
2018-08-13T10:05:02.847Z,30.40
2018-08-13T10:07:32.865Z,30.70
2018-08-13T10:10:03.704Z,30.90
2018-08-13T10:12:34.664Z,31.00
2018-08-13T10:15:05.229Z,31.20
2018-08-13T10:17:37.822Z,31.10
2018-08-13T10:20:11.494Z,30.70
2018-08-13T10:22:41.323Z,30.60
2018-08-13T10:25:15.883Z,30.50
2018-08-13T10:27:46.164Z,30.40
2018-08-13T10:30:18.247Z,30.10
2018-08-13T10:32:48.351Z,29.50
2018-08-13T10:35:19.824Z,29.50
2018-08-13T10:37:50.104Z,29.50
2018-08-13T10:40:20.666Z,29.70
2018-08-13T10:42:50.323Z,29.70
2018-08-13T10:45:20.125Z,30.00
2018-08-13T10:47:50.040Z,30.20
2018-08-13T10:50:20.520Z,30.40
2018-08-13T10:52:50.260Z,30.20
2018-08-13T10:55:21.260Z,30.00
2018-08-13T10:57:51.841Z,30.10
2018-08-13T11:00:21.612Z,30.20
2018-08-13T11:02:51.847Z,30.20
2018-08-13T11:05:21.668Z,30.20
2018-08-13T11:07:51.603Z,30.30
2018-08-13T11:10:21.424Z,30.30
2018-08-13T11:12:51.223Z,30.30
2018-08-13T11:15:21.343Z,30.20
2018-08-13T11:17:56.404Z,30.10
2018-08-13T11:20:26.263Z,29.80
2018-08-13T11:22:56.043Z,29.60
2018-08-13T11:25:26.156Z,29.50
2018-08-13T11:27:59.883Z,29.60
2018-08-13T11:30:34.582Z,29.80
2018-08-13T11:33:06.243Z,29.90
2018-08-13T11:35:40.263Z,29.90
2018-08-13T11:38:10.923Z,29.70
2018-08-13T11:40:42.034Z,29.70
2018-08-13T11:43:12.362Z,29.70
2018-08-13T11:45:42.203Z,29.70
2018-08-13T11:48:12.223Z,29.70
2018-08-13T11:50:42.324Z,29.60
2018-08-13T11:53:13.985Z,29.60
2018-08-13T11:55:44.184Z,29.60
2018-08-13T11:58:14.485Z,29.50
2018-08-13T12:00:44.917Z,29.40
2018-08-13T12:03:14.864Z,29.30
2018-08-13T12:05:45.984Z,29.40
2018-08-13T12:08:16.066Z,29.40
2018-08-13T12:10:46.424Z,29.20
2018-08-13T12:13:20.504Z,29.30
2018-08-13T12:15:51.104Z,29.40
2018-08-13T12:18:21.164Z,29.30
2018-08-13T12:20:52.225Z,29.00
2018-08-13T12:23:23.264Z,28.80
2018-08-13T12:25:53.864Z,28.80
2018-08-13T12:28:23.765Z,28.80
2018-08-13T12:30:54.064Z,29.00
2018-08-13T12:33:25.484Z,29.00
2018-08-13T12:35:55.204Z,29.10
2018-08-13T12:38:25.327Z,29.00
2018-08-13T12:40:55.728Z,29.00
2018-08-13T12:43:25.484Z,29.00
2018-08-13T12:45:55.883Z,29.00
2018-08-13T12:48:25.704Z,29.10
2018-08-13T12:50:55.429Z,28.80
2018-08-13T12:53:25.483Z,28.60
2018-08-13T12:55:55.585Z,28.50
2018-08-13T12:58:26.606Z,28.40
2018-08-13T13:00:58.666Z,28.30
2018-08-13T13:03:29.245Z,28.30
2018-08-13T13:05:59.706Z,28.50
2018-08-13T13:08:30.373Z,28.70
2018-08-13T13:11:00.714Z,28.70
2018-08-13T13:13:30.687Z,28.80
2018-08-13T13:16:00.887Z,28.90
2018-08-13T13:18:30.807Z,28.90
2018-08-13T13:21:00.808Z,28.90
2018-08-13T13:23:31.507Z,28.90
2018-08-13T13:26:01.795Z,29.00
2018-08-13T13:28:31.734Z,28.70
2018-08-13T13:31:02.386Z,28.70
2018-08-13T13:33:33.524Z,28.70
2018-08-13T13:36:03.364Z,28.70
2018-08-13T13:38:34.204Z,28.80
2018-08-13T13:41:04.044Z,28.80
2018-08-13T13:43:34.165Z,28.90
2018-08-13T13:46:08.889Z,28.90
2018-08-13T13:48:42.604Z,28.80
2018-08-13T13:51:13.324Z,28.70
2018-08-13T13:53:43.044Z,28.80
2018-08-13T13:56:13.684Z,29.00
2018-08-13T13:58:43.923Z,29.10
2018-08-13T14:01:13.667Z,29.10
2018-08-13T14:03:43.326Z,29.10
2018-08-13T14:06:13.883Z,28.80
2018-08-13T14:08:43.570Z,28.70
2018-08-13T14:11:18.828Z,28.60
2018-08-13T14:13:48.592Z,28.60
2018-08-13T14:16:18.665Z,28.60
2018-08-13T14:18:48.687Z,28.60
2018-08-13T14:21:19.172Z,28.70
2018-08-13T14:23:51.424Z,28.70
2018-08-13T14:26:21.743Z,28.80
2018-08-13T14:29:00.204Z,28.80
2018-08-13T14:31:30.025Z,28.80
2018-08-13T14:33:59.724Z,28.70
2018-08-13T14:36:30.124Z,28.60
2018-08-13T14:39:00.203Z,28.60
2018-08-13T14:41:30.624Z,28.60
2018-08-13T14:46:34.983Z,28.70
2018-08-13T14:49:04.604Z,28.70
2018-08-13T14:51:34.826Z,28.60
2018-08-13T14:54:09.543Z,28.60
2018-08-13T14:56:40.328Z,28.60
2018-08-13T14:59:10.165Z,28.70
2018-08-13T15:01:40.729Z,28.70
2018-08-13T15:04:10.708Z,28.70
2018-08-13T15:06:40.705Z,28.70
2018-08-13T15:09:12.002Z,28.60
2018-08-13T15:11:43.502Z,28.60
2018-08-13T15:14:16.042Z,28.50
2018-08-13T15:16:50.076Z,28.50
2018-08-13T15:21:54.880Z,28.50
2018-08-13T15:27:03.114Z,28.60
2018-08-13T15:29:33.181Z,28.60
2018-08-13T15:32:02.964Z,28.60
2018-08-13T15:34:32.945Z,28.50
2018-08-13T15:37:03.086Z,28.50
2018-08-13T15:39:32.807Z,28.50
2018-08-13T15:42:02.825Z,28.50
2018-08-13T15:44:32.482Z,28.50
2018-08-13T15:47:02.723Z,28.60
2018-08-13T15:49:32.305Z,28.50
2018-08-13T15:52:01.943Z,28.50
2018-08-13T15:54:31.729Z,28.50
2018-08-13T15:57:05.366Z,28.40
2018-08-13T15:59:34.999Z,28.50
2018-08-13T16:02:04.888Z,28.50
2018-08-13T16:04:34.808Z,28.40
2018-08-13T16:07:11.424Z,28.40
2018-08-13T16:09:42.122Z,28.30
2018-08-13T16:12:11.980Z,28.30
2018-08-13T16:14:41.964Z,28.30
2018-08-13T16:17:11.991Z,28.30
2018-08-13T16:19:42.037Z,28.20
2018-08-13T16:22:11.885Z,28.10
2018-08-13T16:24:41.642Z,28.00
2018-08-13T16:29:49.445Z,27.90
2018-08-13T16:32:19.224Z,27.80
2018-08-13T16:34:49.945Z,27.70
2018-08-13T16:37:19.743Z,27.60
2018-08-13T16:39:49.587Z,27.50
2018-08-13T16:42:19.202Z,27.50
2018-08-13T16:44:48.962Z,27.40
2018-08-13T16:47:19.075Z,27.30
2018-08-13T16:49:48.861Z,27.20
2018-08-13T16:54:56.602Z,27.20
2018-08-13T16:57:26.441Z,27.10
2018-08-13T16:59:56.512Z,27.00
2018-08-13T17:02:26.458Z,27.00
2018-08-13T17:04:56.303Z,27.00
2018-08-13T17:07:26.125Z,26.90
2018-08-13T17:09:55.908Z,26.80
2018-08-13T17:12:25.727Z,26.80
2018-08-13T17:14:55.486Z,26.80
2018-08-13T17:17:25.423Z,26.80
2018-08-13T17:19:55.385Z,26.80
2018-08-13T17:22:25.723Z,26.70
2018-08-13T17:24:55.856Z,26.70
2018-08-13T17:27:25.845Z,26.70
2018-08-13T17:29:55.582Z,26.60
2018-08-13T17:32:25.302Z,26.60
2018-08-13T17:34:55.224Z,26.50
2018-08-13T17:37:25.042Z,26.50
2018-08-13T17:39:54.726Z,26.40
2018-08-13T17:42:24.481Z,26.30
2018-08-13T17:44:54.441Z,26.30
2018-08-13T17:47:28.661Z,26.30
2018-08-13T17:50:03.081Z,26.20
2018-08-13T17:52:33.002Z,26.00
2018-08-13T17:55:02.640Z,25.80
2018-08-13T17:57:32.502Z,25.70
2018-08-13T18:00:02.247Z,25.60
2018-08-13T18:02:32.346Z,25.60
2018-08-13T18:05:01.995Z,25.50
2018-08-13T18:07:31.641Z,25.50
2018-08-13T18:10:01.331Z,25.50
2018-08-13T18:12:31.029Z,25.50
2018-08-13T18:15:01.114Z,25.50
2018-08-13T18:17:30.974Z,25.40
2018-08-13T18:20:00.714Z,25.40
2018-08-13T18:22:30.510Z,25.30
2018-08-13T18:25:00.255Z,25.30
2018-08-13T18:27:29.893Z,25.30
2018-08-13T18:29:59.821Z,25.30
2018-08-13T18:32:29.523Z,25.30
2018-08-13T18:35:00.192Z,25.30
2018-08-13T18:37:29.986Z,25.30
2018-08-13T18:40:00.684Z,25.30
2018-08-13T18:42:30.401Z,25.20
2018-08-13T18:45:00.143Z,25.10
2018-08-13T18:47:29.741Z,25.10
2018-08-13T18:49:59.607Z,25.00
2018-08-13T18:52:29.422Z,24.90
2018-08-13T18:54:59.293Z,24.90
2018-08-13T18:57:28.991Z,24.80
2018-08-13T18:59:58.662Z,24.80
2018-08-13T19:02:28.452Z,24.70
2018-08-13T19:04:58.394Z,24.70
2018-08-13T19:07:28.144Z,24.60
2018-08-13T19:09:57.742Z,24.50
2018-08-13T19:12:27.490Z,24.50
2018-08-13T19:14:57.181Z,24.40
2018-08-13T19:17:27.011Z,24.40
2018-08-13T19:19:56.943Z,24.30
2018-08-13T19:22:30.903Z,24.30
2018-08-13T19:25:00.723Z,24.30
2018-08-13T19:27:30.356Z,24.20
2018-08-13T19:29:59.983Z,24.10
2018-08-13T19:32:29.713Z,24.10
2018-08-13T19:34:59.521Z,24.10
2018-08-13T19:37:29.321Z,24.00
2018-08-13T19:39:58.991Z,24.00
2018-08-13T19:42:28.882Z,23.90
2018-08-13T19:44:58.908Z,23.80
2018-08-13T19:47:29.364Z,23.70
2018-08-13T19:49:59.063Z,23.50
2018-08-13T19:52:29.188Z,23.10
2018-08-13T19:54:59.246Z,22.50
2018-08-13T19:57:28.866Z,21.70
2018-08-13T19:59:58.485Z,21.50
2018-08-13T20:02:28.441Z,21.40
2018-08-13T20:04:57.983Z,21.60
2018-08-13T20:07:27.522Z,21.80
2018-08-13T20:09:57.727Z,22.20
2018-08-13T20:12:27.586Z,22.40
2018-08-13T20:14:57.661Z,22.60
2018-08-13T20:17:27.481Z,22.60
2018-08-13T20:19:57.521Z,22.70
2018-08-13T20:22:27.245Z,22.80
2018-08-13T20:24:57.342Z,22.80
2018-08-13T20:27:27.162Z,22.90
2018-08-13T20:29:57.023Z,22.90
2018-08-13T20:32:27.122Z,22.90
2018-08-13T20:34:57.023Z,22.80
2018-08-13T20:37:27.404Z,22.70
2018-08-13T20:39:57.610Z,22.70
2018-08-13T20:42:27.923Z,22.70
2018-08-13T20:44:57.764Z,22.80
2018-08-13T20:47:27.681Z,22.70
2018-08-13T20:49:57.481Z,22.70
2018-08-13T20:52:27.282Z,22.70
2018-08-13T20:54:57.662Z,22.70
2018-08-13T20:57:27.861Z,22.70
2018-08-13T20:59:57.923Z,22.70
2018-08-13T21:02:28.144Z,22.70
2018-08-13T21:04:59.064Z,22.80
2018-08-13T21:07:28.941Z,22.80
2018-08-13T21:09:58.802Z,22.80
2018-08-13T21:12:29.181Z,22.80
2018-08-13T21:14:59.002Z,22.70
2018-08-13T21:17:28.720Z,22.70
2018-08-13T21:19:58.780Z,22.70
2018-08-13T21:22:28.527Z,22.60
2018-08-13T21:24:58.401Z,22.60
2018-08-13T21:27:28.400Z,22.50
2018-08-13T21:29:59.701Z,22.50
2018-08-13T21:32:29.861Z,22.50
2018-08-13T21:34:59.680Z,22.50
2018-08-13T21:37:30.016Z,22.40
2018-08-13T21:40:00.141Z,22.40
2018-08-13T21:42:30.149Z,22.30
2018-08-13T21:45:00.202Z,22.30
2018-08-13T21:47:30.023Z,22.20
2018-08-13T21:50:00.051Z,22.10
2018-08-13T21:52:30.082Z,22.00
2018-08-13T21:55:00.220Z,22.00
2018-08-13T21:57:29.921Z,21.90
2018-08-13T21:59:59.781Z,22.00
2018-08-13T22:02:29.807Z,21.90
2018-08-13T22:04:59.625Z,21.80
2018-08-13T22:07:29.948Z,21.70
2018-08-13T22:10:00.032Z,21.60
2018-08-13T22:12:29.826Z,21.50
2018-08-13T22:15:01.202Z,21.50
2018-08-13T22:17:31.323Z,21.40
2018-08-13T22:20:01.323Z,21.40
2018-08-13T22:22:31.141Z,21.40
2018-08-13T22:25:04.901Z,21.30
2018-08-13T22:27:35.421Z,21.20
2018-08-13T22:30:07.321Z,21.00
2018-08-13T22:32:37.510Z,20.90
2018-08-13T22:35:08.863Z,20.80
2018-08-13T22:37:40.863Z,20.80
2018-08-13T22:40:17.444Z,20.80
2018-08-13T22:42:48.005Z,20.80
2018-08-13T22:45:20.391Z,20.70
2018-08-13T22:47:50.448Z,20.80
2018-08-13T22:50:20.265Z,20.80
2018-08-13T22:52:49.606Z,20.90
2018-08-13T22:55:19.607Z,20.90
2018-08-13T22:57:50.023Z,20.90
2018-08-13T23:00:21.554Z,20.90
2018-08-13T23:02:52.229Z,20.90
2018-08-13T23:05:25.089Z,20.80
2018-08-13T23:07:55.105Z,20.70
2018-08-13T23:10:25.205Z,20.70
2018-08-13T23:12:57.126Z,20.70
2018-08-13T23:15:27.048Z,20.70
2018-08-13T23:17:56.966Z,20.70
2018-08-13T23:20:29.069Z,20.60
2018-08-13T23:23:03.048Z,20.60
2018-08-13T23:25:34.146Z,20.60
2018-08-13T23:28:04.405Z,20.50
2018-08-13T23:30:33.625Z,20.40
2018-08-13T23:33:02.990Z,20.40
2018-08-13T23:35:32.545Z,20.40
2018-08-13T23:38:01.346Z,20.40
2018-08-13T23:40:30.386Z,20.40
2018-08-13T23:42:59.206Z,20.50
2018-08-13T23:45:29.250Z,20.50
2018-08-13T23:47:59.429Z,20.50
2018-08-13T23:53:04.069Z,20.60
2018-08-13T23:55:38.650Z,20.60
2018-08-13T23:58:10.746Z,20.60
